Mandoudi — SV3198 — position and weather

sailwx.info

Track history (hours):
 
Tides and Currents Weather Stations Pressure Air Temp Water Temp Dewpoint Dewpoint Depression Visibility Wind Speed Wind Dir Waves Ship Positions

Mandoudi

Last reported at 2014-Dec-20 22:21 UTC. Time now 2014-Dec-21 05:28 UTC.
Position N 37°58' E 023°37'.

Length 60 m; draft 4.6 m.

Type: Ship (hazmat cat A). MMSI: 237470200.

Date/timePositionNaut miles runAvg speedWind from/ knotsBaromVisibWave heightAir tempDewpointWater temp
2014-Dec-20 22:21N 37°58' E 023°37'0 0.0
2014-Dec-20 21:33N 37°58' E 023°37'0 0.0
2014-Dec-20 20:33N 37°58' E 023°37'0 0.0
2014-Dec-20 19:33N 37°58' E 023°37'0 0.0
2014-Dec-20 18:33N 37°58' E 023°37'0 0.0
2014-Dec-20 17:33N 37°58' E 023°37'0 0.0
2014-Dec-20 16:33N 37°58' E 023°37'0 0.0
2014-Dec-20 15:33N 37°58' E 023°37'0 0.0
2014-Dec-20 14:33N 37°58' E 023°37'0 0.0
2014-Dec-20 13:33N 37°58' E 023°37'0 0.0
2014-Dec-20 12:33N 37°58' E 023°37'0 0.0
2014-Dec-20 11:33N 37°58' E 023°37'0 0.0
2014-Dec-20 10:33N 37°58' E 023°37'0 0.0
2014-Dec-20 09:33N 37°58' E 023°37'0 0.0
2014-Dec-20 08:33N 37°58' E 023°37'0 0.0
2014-Dec-20 07:33N 37°58' E 023°37'0 0.0
2014-Dec-20 06:33N 37°58' E 023°37'0 0.0
2014-Dec-19 14:33N 37°58' E 023°37'0 0.0
2014-Dec-19 13:34N 37°58' E 023°37'0 0.0
2014-Dec-19 12:33N 37°58' E 023°37'0 0.0
2014-Dec-19 11:34N 37°58' E 023°37'0 0.0
2014-Dec-19 10:33N 37°58' E 023°37'0 0.0
2014-Dec-19 09:33N 37°58' E 023°37'0 0.0
2014-Dec-19 08:33N 37°58' E 023°37'0 0.0
2014-Dec-19 07:33N 37°58' E 023°37'0 0.0
2014-Dec-19 06:33N 37°58' E 023°37'2 2.3
2014-Dec-19 05:33N 37°57' E 023°34'6 5.5
2014-Dec-19 04:33N 38°02' E 023°31'0 0.0
2014-Dec-19 03:33N 38°02' E 023°31'0 0.0
2014-Dec-19 02:33N 38°02' E 023°31'0 0.0
2014-Dec-19 01:33N 38°02' E 023°31'0 0.0
2014-Dec-19 00:33N 38°02' E 023°31'0 0.0
2014-Dec-18 23:33N 38°02' E 023°31'0 0.0
2014-Dec-18 22:33N 38°02' E 023°31'0 0.3
2014-Dec-18 21:33N 38°02' E 023°31'0 0.5
2014-Dec-18 20:33N 38°02' E 023°31'0 0.0
2014-Dec-18 19:33N 38°02' E 023°31'0 0.0
2014-Dec-18 18:32N 38°02' E 023°31'0 0.0
2014-Dec-18 17:33N 38°02' E 023°31'1 0.9
2014-Dec-18 16:33N 38°01' E 023°33'0 0.0
2014-Dec-18 15:31N 38°02' E 023°33'4 4.6
2014-Dec-18 14:33N 37°57' E 023°34'2 2.0
2014-Dec-18 13:33N 37°58' E 023°37'0 0.0
2014-Dec-18 12:33N 37°58' E 023°37'0 0.0
2014-Dec-18 11:33N 37°58' E 023°37'0 0.0
2014-Dec-18 10:33N 37°58' E 023°37'0 0.0
2014-Dec-18 09:33N 37°58' E 023°37'0 0.0
2014-Dec-18 08:33N 37°58' E 023°37'0 0.0
2014-Dec-18 07:33N 37°58' E 023°37'0 0.0
2014-Dec-18 06:33N 37°58' E 023°37'0 0.0
2014-Dec-18 05:34N 37°58' E 023°37'0 0.0
2014-Dec-17 23:33N 37°58' E 023°37'0 0.0
2014-Dec-17 22:33N 37°58' E 023°37'0 0.0
2014-Dec-17 21:33N 37°58' E 023°37'0 0.0
2014-Dec-17 20:33N 37°58' E 023°37'0 0.0
2014-Dec-17 19:33N 37°58' E 023°37'0 0.0
2014-Dec-17 18:33N 37°58' E 023°37'0 0.0
2014-Dec-17 17:33N 37°58' E 023°37'0 0.0
2014-Dec-17 16:33N 37°58' E 023°37'0 0.0
2014-Dec-17 15:33N 37°58' E 023°37'0 0.0
2014-Dec-17 14:33N 37°58' E 023°37'0 0.0
2014-Dec-17 13:30N 37°58' E 023°37'1 1.4
2014-Dec-17 12:33N 37°56' E 023°38'1 0.5
2014-Dec-17 11:29N 37°57' E 023°38'0 0.0
2014-Dec-17 10:17N 37°57' E 023°38'0 0.0
2014-Dec-17 09:33N 37°57' E 023°38'0 0.0
2014-Dec-17 07:25N 37°57' E 023°38'2 0.1
2014-Dec-16 20:26N 37°57' E 023°36'6 6.0
2014-Dec-16 19:21N 38°02' E 023°31'0 0.0
2014-Dec-16 11:30N 38°02' E 023°31'8 8.0
2014-Dec-16 10:33N 37°56' E 023°38'0 0.4
2014-Dec-16 09:33N 37°57' E 023°38'0 0.0
2014-Dec-16 08:33N 37°57' E 023°38'0 0.0
2014-Dec-16 07:33N 37°57' E 023°38'1 1.5
2014-Dec-16 06:33N 37°58' E 023°37'0 0.0
2014-Dec-16 05:33N 37°58' E 023°37'0 0.0
2014-Dec-16 02:33N 37°58' E 023°37'0 0.0
2014-Dec-16 01:33N 37°58' E 023°37'0 0.0
2014-Dec-16 00:33N 37°58' E 023°37'0 0.0
2014-Dec-15 23:33N 37°58' E 023°37'0 0.0
2014-Dec-15 22:33N 37°58' E 023°37'0 0.0
2014-Dec-15 21:33N 37°58' E 023°37'0 0.0
2014-Dec-15 20:33N 37°58' E 023°37'0 0.0
2014-Dec-15 19:34N 37°58' E 023°37'0 0.0
2014-Dec-15 18:33N 37°58' E 023°37'0 0.0
2014-Dec-15 17:34N 37°58' E 023°37'0 0.0
2014-Dec-15 16:34N 37°58' E 023°37'0 0.2
2014-Dec-15 15:33N 37°57' E 023°36'2 1.7
2014-Dec-15 14:33N 37°57' E 023°38'0 0.0
2014-Dec-15 13:33N 37°57' E 023°38'0 0.0
2014-Dec-15 12:33N 37°57' E 023°38'0 0.0
2014-Dec-15 11:34N 37°57' E 023°38'0 0.0
2014-Dec-15 10:33N 37°57' E 023°38'0 0.0
2014-Dec-15 09:33N 37°57' E 023°38'0 0.0
2014-Dec-15 08:33N 37°57' E 023°38'0 0.0
2014-Dec-15 07:34N 37°57' E 023°38'1 1.1
2014-Dec-15 06:33N 37°56' E 023°37'1 0.2
2014-Dec-15 01:24N 37°58' E 023°37'0 0.0
2014-Dec-15 00:33N 37°58' E 023°37'0 0.0
2014-Dec-14 23:33N 37°58' E 023°37'0 0.0
2014-Dec-14 22:33N 37°58' E 023°37'0 0.0
2014-Dec-14 21:33N 37°58' E 023°37'0 0.0
2014-Dec-14 20:33N 37°58' E 023°37'0 0.0
2014-Dec-14 19:33N 37°58' E 023°37'0 0.0
2014-Dec-14 18:33N 37°58' E 023°37'1 1.0
2014-Dec-14 17:33N 37°57' E 023°36'5 5.1
2014-Dec-14 16:33N 38°01' E 023°32'0 0.0
2014-Dec-14 15:33N 38°01' E 023°32'0 0.0
2014-Dec-14 14:33N 38°01' E 023°32'0 0.5
2014-Dec-14 13:33N 38°01' E 023°32'0 0.1
2014-Dec-14 12:33N 38°01' E 023°32'0 0.0
2014-Dec-14 11:33N 38°01' E 023°32'0 0.0
2014-Dec-14 10:33N 38°01' E 023°32'0 0.0
2014-Dec-14 09:31N 38°01' E 023°32'5 4.8
2014-Dec-14 08:33N 37°57' E 023°34'2 0.2
2014-Dec-13 23:33N 37°58' E 023°37'0 0.0
2014-Dec-13 22:33N 37°58' E 023°37'0 0.0
2014-Dec-13 21:33N 37°58' E 023°37'0 0.0
2014-Dec-13 20:33N 37°58' E 023°37'0 0.0
2014-Dec-13 19:33N 37°58' E 023°37'0 0.0
2014-Dec-13 18:33N 37°58' E 023°37'0 0.0
2014-Dec-13 17:33N 37°58' E 023°37'0 0.0
2014-Dec-13 16:33N 37°58' E 023°37'0 0.0
2014-Dec-13 15:33N 37°58' E 023°37'0 0.0
2014-Dec-13 14:33N 37°58' E 023°37'0 0.0
2014-Dec-13 13:33N 37°58' E 023°37'0 0.0
2014-Dec-13 12:33N 37°58' E 023°37'4 3.8
2014-Dec-13 11:33N 37°60' E 023°33'2 1.6
2014-Dec-13 10:31N 38°01' E 023°32'0 0.0
2014-Dec-13 09:33N 38°01' E 023°32'0 0.0
2014-Dec-13 08:33N 38°01' E 023°32'0 0.0
2014-Dec-13 07:33N 38°01' E 023°32'1 1.1
2014-Dec-13 06:33N 38°00' E 023°33'4 4.2
2014-Dec-13 05:33N 37°58' E 023°37'0 0.0
2014-Dec-13 04:33N 37°58' E 023°37'0 0.0
2014-Dec-13 00:34N 37°58' E 023°37'0 0.0
2014-Dec-12 23:34N 37°58' E 023°37'0 0.0
2014-Dec-12 22:34N 37°58' E 023°37'0 0.0
2014-Dec-12 21:34N 37°58' E 023°37'0 0.0
2014-Dec-12 20:34N 37°58' E 023°37'0 0.0
2014-Dec-12 19:34N 37°58' E 023°37'0 0.0
2014-Dec-12 18:34N 37°58' E 023°37'0 0.0
2014-Dec-12 17:33N 37°58' E 023°37'0 0.0
2014-Dec-12 16:34N 37°58' E 023°37'0 0.0
2014-Dec-12 15:33N 37°58' E 023°37'0 0.0
2014-Dec-12 14:34N 37°58' E 023°37'3 3.1
2014-Dec-12 13:33N 37°55' E 023°34'7 7.1
2014-Dec-12 12:33N 37°53' E 023°25'7 6.6
2014-Dec-12 11:34N 37°59' E 023°25'6 5.9
2014-Dec-12 10:33N 38°02' E 023°32'0 0.0
2014-Dec-12 09:31N 38°02' E 023°32'0 0.0
2014-Dec-12 08:32N 38°02' E 023°32'0 0.0
2014-Dec-12 07:33N 38°02' E 023°32'0 0.0
2014-Dec-12 06:34N 38°02' E 023°32'0 0.0
2014-Dec-12 05:34N 38°02' E 023°32'0 0.0
2014-Dec-12 04:33N 38°02' E 023°32'0 0.0
2014-Dec-12 03:31N 38°02' E 023°32'0 0.0
2014-Dec-12 02:33N 38°02' E 023°32'0 0.0
2014-Dec-12 01:33N 38°02' E 023°32'0 0.0
2014-Dec-12 00:34N 38°02' E 023°32'0 0.0
2014-Dec-11 23:33N 38°02' E 023°32'0 0.0
2014-Dec-11 22:34N 38°02' E 023°32'0 0.0
2014-Dec-11 21:31N 38°02' E 023°32'0 0.0
2014-Dec-11 20:31N 38°02' E 023°32'0 0.0
2014-Dec-11 19:29N 38°02' E 023°32'0 0.0
2014-Dec-11 18:33N 38°02' E 023°32'1 0.7
2014-Dec-11 17:16N 38°02' E 023°31'0 0.0
2014-Dec-11 16:34N 38°02' E 023°31'0 0.0
2014-Dec-11 15:14N 38°02' E 023°31'0 0.0
2014-Dec-11 14:34N 38°02' E 023°31'0 0.0
2014-Dec-11 13:26N 38°02' E 023°31'0 0.0
2014-Dec-11 12:34N 38°02' E 023°31'0 0.0
2014-Dec-11 11:34N 38°02' E 023°31'0 0.4
2014-Dec-11 10:32N 38°02' E 023°31'4 4.1
2014-Dec-11 09:33N 37°58' E 023°33'3 3.1
2014-Dec-11 08:34N 37°58' E 023°37'0 0.0
2014-Dec-11 07:34N 37°58' E 023°37'0 0.0
2014-Dec-11 06:34N 37°58' E 023°37'0 0.0
2014-Dec-11 05:34N 37°58' E 023°37'0 0.0
2014-Dec-11 01:17N 37°58' E 023°37'0 0.0
2014-Dec-11 00:33N 37°58' E 023°37'0 0.0
2014-Dec-10 23:34N 37°58' E 023°37'0 0.0
2014-Dec-10 22:34N 37°58' E 023°37'  
Track history (hours):
 
Tides and Currents Weather Stations Pressure Air Temp Water Temp Dewpoint Dewpoint Depression Visibility Wind Speed Wind Dir Waves Ship Positions

Mandoudi

Last reported at 2014-Dec-20 22:21 UTC. Time now 2014-Dec-21 05:28 UTC.
Position N 37°58' E 023°37'.

Length 60 m; draft 4.6 m.

Type: Ship (hazmat cat A). MMSI: 237470200.

Date/timePositionNaut miles runAvg speedWind from/ knotsBaromVisibWave heightAir tempDewpointWater temp
2014-Dec-20 22:21N 37°58' E 023°37'0 0.0
2014-Dec-20 21:33N 37°58' E 023°37'0 0.0
2014-Dec-20 20:33N 37°58' E 023°37'0 0.0
2014-Dec-20 19:33N 37°58' E 023°37'0 0.0
2014-Dec-20 18:33N 37°58' E 023°37'0 0.0
2014-Dec-20 17:33N 37°58' E 023°37'0 0.0
2014-Dec-20 16:33N 37°58' E 023°37'0 0.0
2014-Dec-20 15:33N 37°58' E 023°37'0 0.0
2014-Dec-20 14:33N 37°58' E 023°37'0 0.0
2014-Dec-20 13:33N 37°58' E 023°37'0 0.0
2014-Dec-20 12:33N 37°58' E 023°37'0 0.0
2014-Dec-20 11:33N 37°58' E 023°37'0 0.0
2014-Dec-20 10:33N 37°58' E 023°37'0 0.0
2014-Dec-20 09:33N 37°58' E 023°37'0 0.0
2014-Dec-20 08:33N 37°58' E 023°37'0 0.0
2014-Dec-20 07:33N 37°58' E 023°37'0 0.0
2014-Dec-20 06:33N 37°58' E 023°37'0 0.0
2014-Dec-19 14:33N 37°58' E 023°37'0 0.0
2014-Dec-19 13:34N 37°58' E 023°37'0 0.0
2014-Dec-19 12:33N 37°58' E 023°37'0 0.0
2014-Dec-19 11:34N 37°58' E 023°37'0 0.0
2014-Dec-19 10:33N 37°58' E 023°37'0 0.0
2014-Dec-19 09:33N 37°58' E 023°37'0 0.0
2014-Dec-19 08:33N 37°58' E 023°37'0 0.0
2014-Dec-19 07:33N 37°58' E 023°37'0 0.0
2014-Dec-19 06:33N 37°58' E 023°37'2 2.3
2014-Dec-19 05:33N 37°57' E 023°34'6 5.5
2014-Dec-19 04:33N 38°02' E 023°31'0 0.0
2014-Dec-19 03:33N 38°02' E 023°31'0 0.0
2014-Dec-19 02:33N 38°02' E 023°31'0 0.0
2014-Dec-19 01:33N 38°02' E 023°31'0 0.0
2014-Dec-19 00:33N 38°02' E 023°31'0 0.0
2014-Dec-18 23:33N 38°02' E 023°31'0 0.0
2014-Dec-18 22:33N 38°02' E 023°31'0 0.3
2014-Dec-18 21:33N 38°02' E 023°31'0 0.5
2014-Dec-18 20:33N 38°02' E 023°31'0 0.0
2014-Dec-18 19:33N 38°02' E 023°31'0 0.0
2014-Dec-18 18:32N 38°02' E 023°31'0 0.0
2014-Dec-18 17:33N 38°02' E 023°31'1 0.9
2014-Dec-18 16:33N 38°01' E 023°33'0 0.0
2014-Dec-18 15:31N 38°02' E 023°33'4 4.6
2014-Dec-18 14:33N 37°57' E 023°34'2 2.0
2014-Dec-18 13:33N 37°58' E 023°37'0 0.0
2014-Dec-18 12:33N 37°58' E 023°37'0 0.0
2014-Dec-18 11:33N 37°58' E 023°37'0 0.0
2014-Dec-18 10:33N 37°58' E 023°37'0 0.0
2014-Dec-18 09:33N 37°58' E 023°37'0 0.0
2014-Dec-18 08:33N 37°58' E 023°37'0 0.0
2014-Dec-18 07:33N 37°58' E 023°37'0 0.0
2014-Dec-18 06:33N 37°58' E 023°37'0 0.0
2014-Dec-18 05:34N 37°58' E 023°37'0 0.0
2014-Dec-17 23:33N 37°58' E 023°37'0 0.0
2014-Dec-17 22:33N 37°58' E 023°37'0 0.0
2014-Dec-17 21:33N 37°58' E 023°37'0 0.0
2014-Dec-17 20:33N 37°58' E 023°37'0 0.0
2014-Dec-17 19:33N 37°58' E 023°37'0 0.0
2014-Dec-17 18:33N 37°58' E 023°37'0 0.0
2014-Dec-17 17:33N 37°58' E 023°37'0 0.0
2014-Dec-17 16:33N 37°58' E 023°37'0 0.0
2014-Dec-17 15:33N 37°58' E 023°37'0 0.0
2014-Dec-17 14:33N 37°58' E 023°37'0 0.0
2014-Dec-17 13:30N 37°58' E 023°37'1 1.4
2014-Dec-17 12:33N 37°56' E 023°38'1 0.5
2014-Dec-17 11:29N 37°57' E 023°38'0 0.0
2014-Dec-17 10:17N 37°57' E 023°38'0 0.0
2014-Dec-17 09:33N 37°57' E 023°38'0 0.0
2014-Dec-17 07:25N 37°57' E 023°38'2 0.1
2014-Dec-16 20:26N 37°57' E 023°36'6 6.0
2014-Dec-16 19:21N 38°02' E 023°31'0 0.0
2014-Dec-16 11:30N 38°02' E 023°31'8 8.0
2014-Dec-16 10:33N 37°56' E 023°38'0 0.4
2014-Dec-16 09:33N 37°57' E 023°38'0 0.0
2014-Dec-16 08:33N 37°57' E 023°38'0 0.0
2014-Dec-16 07:33N 37°57' E 023°38'1 1.5
2014-Dec-16 06:33N 37°58' E 023°37'0 0.0
2014-Dec-16 05:33N 37°58' E 023°37'0 0.0
2014-Dec-16 02:33N 37°58' E 023°37'0 0.0
2014-Dec-16 01:33N 37°58' E 023°37'0 0.0
2014-Dec-16 00:33N 37°58' E 023°37'0 0.0
2014-Dec-15 23:33N 37°58' E 023°37'0 0.0
2014-Dec-15 22:33N 37°58' E 023°37'0 0.0
2014-Dec-15 21:33N 37°58' E 023°37'0 0.0
2014-Dec-15 20:33N 37°58' E 023°37'0 0.0
2014-Dec-15 19:34N 37°58' E 023°37'0 0.0
2014-Dec-15 18:33N 37°58' E 023°37'0 0.0
2014-Dec-15 17:34N 37°58' E 023°37'0 0.0
2014-Dec-15 16:34N 37°58' E 023°37'0 0.2
2014-Dec-15 15:33N 37°57' E 023°36'2 1.7
2014-Dec-15 14:33N 37°57' E 023°38'0 0.0
2014-Dec-15 13:33N 37°57' E 023°38'0 0.0
2014-Dec-15 12:33N 37°57' E 023°38'0 0.0
2014-Dec-15 11:34N 37°57' E 023°38'0 0.0
2014-Dec-15 10:33N 37°57' E 023°38'0 0.0
2014-Dec-15 09:33N 37°57' E 023°38'0 0.0
2014-Dec-15 08:33N 37°57' E 023°38'0 0.0
2014-Dec-15 07:34N 37°57' E 023°38'1 1.1
2014-Dec-15 06:33N 37°56' E 023°37'1 0.2
2014-Dec-15 01:24N 37°58' E 023°37'0 0.0
2014-Dec-15 00:33N 37°58' E 023°37'0 0.0
2014-Dec-14 23:33N 37°58' E 023°37'0 0.0
2014-Dec-14 22:33N 37°58' E 023°37'0 0.0
2014-Dec-14 21:33N 37°58' E 023°37'0 0.0
2014-Dec-14 20:33N 37°58' E 023°37'0 0.0
2014-Dec-14 19:33N 37°58' E 023°37'0 0.0
2014-Dec-14 18:33N 37°58' E 023°37'1 1.0
2014-Dec-14 17:33N 37°57' E 023°36'5 5.1
2014-Dec-14 16:33N 38°01' E 023°32'0 0.0
2014-Dec-14 15:33N 38°01' E 023°32'0 0.0
2014-Dec-14 14:33N 38°01' E 023°32'0 0.5
2014-Dec-14 13:33N 38°01' E 023°32'0 0.1
2014-Dec-14 12:33N 38°01' E 023°32'0 0.0
2014-Dec-14 11:33N 38°01' E 023°32'0 0.0
2014-Dec-14 10:33N 38°01' E 023°32'0 0.0
2014-Dec-14 09:31N 38°01' E 023°32'5 4.8
2014-Dec-14 08:33N 37°57' E 023°34'2 0.2
2014-Dec-13 23:33N 37°58' E 023°37'0 0.0
2014-Dec-13 22:33N 37°58' E 023°37'0 0.0
2014-Dec-13 21:33N 37°58' E 023°37'0 0.0
2014-Dec-13 20:33N 37°58' E 023°37'0 0.0
2014-Dec-13 19:33N 37°58' E 023°37'0 0.0
2014-Dec-13 18:33N 37°58' E 023°37'0 0.0
2014-Dec-13 17:33N 37°58' E 023°37'0 0.0
2014-Dec-13 16:33N 37°58' E 023°37'0 0.0
2014-Dec-13 15:33N 37°58' E 023°37'0 0.0
2014-Dec-13 14:33N 37°58' E 023°37'0 0.0
2014-Dec-13 13:33N 37°58' E 023°37'0 0.0
2014-Dec-13 12:33N 37°58' E 023°37'4 3.8
2014-Dec-13 11:33N 37°60' E 023°33'2 1.6
2014-Dec-13 10:31N 38°01' E 023°32'0 0.0
2014-Dec-13 09:33N 38°01' E 023°32'0 0.0
2014-Dec-13 08:33N 38°01' E 023°32'0 0.0
2014-Dec-13 07:33N 38°01' E 023°32'1 1.1
2014-Dec-13 06:33N 38°00' E 023°33'4 4.2
2014-Dec-13 05:33N 37°58' E 023°37'0 0.0
2014-Dec-13 04:33N 37°58' E 023°37'0 0.0
2014-Dec-13 00:34N 37°58' E 023°37'0 0.0
2014-Dec-12 23:34N 37°58' E 023°37'0 0.0
2014-Dec-12 22:34N 37°58' E 023°37'0 0.0
2014-Dec-12 21:34N 37°58' E 023°37'0 0.0
2014-Dec-12 20:34N 37°58' E 023°37'0 0.0
2014-Dec-12 19:34N 37°58' E 023°37'0 0.0
2014-Dec-12 18:34N 37°58' E 023°37'0 0.0
2014-Dec-12 17:33N 37°58' E 023°37'0 0.0
2014-Dec-12 16:34N 37°58' E 023°37'0 0.0
2014-Dec-12 15:33N 37°58' E 023°37'0 0.0
2014-Dec-12 14:34N 37°58' E 023°37'3 3.1
2014-Dec-12 13:33N 37°55' E 023°34'7 7.1
2014-Dec-12 12:33N 37°53' E 023°25'7 6.6
2014-Dec-12 11:34N 37°59' E 023°25'6 5.9
2014-Dec-12 10:33N 38°02' E 023°32'0 0.0
2014-Dec-12 09:31N 38°02' E 023°32'0 0.0
2014-Dec-12 08:32N 38°02' E 023°32'0 0.0
2014-Dec-12 07:33N 38°02' E 023°32'0 0.0
2014-Dec-12 06:34N 38°02' E 023°32'0 0.0
2014-Dec-12 05:34N 38°02' E 023°32'0 0.0
2014-Dec-12 04:33N 38°02' E 023°32'0 0.0
2014-Dec-12 03:31N 38°02' E 023°32'0 0.0
2014-Dec-12 02:33N 38°02' E 023°32'0 0.0
2014-Dec-12 01:33N 38°02' E 023°32'0 0.0
2014-Dec-12 00:34N 38°02' E 023°32'0 0.0
2014-Dec-11 23:33N 38°02' E 023°32'0 0.0
2014-Dec-11 22:34N 38°02' E 023°32'0 0.0
2014-Dec-11 21:31N 38°02' E 023°32'0 0.0
2014-Dec-11 20:31N 38°02' E 023°32'0 0.0
2014-Dec-11 19:29N 38°02' E 023°32'0 0.0
2014-Dec-11 18:33N 38°02' E 023°32'1 0.7
2014-Dec-11 17:16N 38°02' E 023°31'0 0.0
2014-Dec-11 16:34N 38°02' E 023°31'0 0.0
2014-Dec-11 15:14N 38°02' E 023°31'0 0.0
2014-Dec-11 14:34N 38°02' E 023°31'0 0.0
2014-Dec-11 13:26N 38°02' E 023°31'0 0.0
2014-Dec-11 12:34N 38°02' E 023°31'0 0.0
2014-Dec-11 11:34N 38°02' E 023°31'0 0.4
2014-Dec-11 10:32N 38°02' E 023°31'4 4.1
2014-Dec-11 09:33N 37°58' E 023°33'3 3.1
2014-Dec-11 08:34N 37°58' E 023°37'0 0.0
2014-Dec-11 07:34N 37°58' E 023°37'0 0.0
2014-Dec-11 06:34N 37°58' E 023°37'0 0.0
2014-Dec-11 05:34N 37°58' E 023°37'0 0.0
2014-Dec-11 01:17N 37°58' E 023°37'0 0.0
2014-Dec-11 00:33N 37°58' E 023°37'0 0.0
2014-Dec-10 23:34N 37°58' E 023°37'0 0.0
2014-Dec-10 22:34N 37°58' E 023°37'  

Dump ship's entire track history